sensor_id;sensor_type;location;lat;lon;timestamp;pressure;altitude;pressure_sealevel;temperature;humidity
49973;BME280;35865;49.798;10.968;2022-09-21T00:00:37;99107.34;;;8.03;100.00
49973;BME280;35865;49.798;10.968;2022-09-21T00:03:04;99113.03;;;8.13;100.00
49973;BME280;35865;49.798;10.968;2022-09-21T00:05:31;99107.53;;;8.08;100.00
49973;BME280;35865;49.798;10.968;2022-09-21T00:07:58;99109.41;;;8.01;100.00
49973;BME280;35865;49.798;10.968;2022-09-21T00:10:25;99107.75;;;8.06;100.00
49973;BME280;35865;49.798;10.968;2022-09-21T00:12:52;99108.38;;;8.02;100.00
49973;BME280;35865;49.798;10.968;2022-09-21T00:15:19;99107.75;;;8.06;100.00
49973;BME280;35865;49.798;10.968;2022-09-21T00:17:47;99108.97;;;8.04;100.00
49973;BME280;35865;49.798;10.968;2022-09-21T00:20:14;99112.63;;;8.03;100.00
49973;BME280;35865;49.798;10.968;2022-09-21T00:22:40;99113.25;;;8.05;100.00
49973;BME280;35865;49.798;10.968;2022-09-21T00:25:07;99115.88;;;8.12;100.00
49973;BME280;35865;49.798;10.968;2022-09-21T00:27:34;99116.91;;;8.10;100.00
49973;BME280;35865;49.798;10.968;2022-09-21T00:30:00;99123.19;;;8.16;100.00
49973;BME280;35865;49.798;10.968;2022-09-21T00:32:30;99129.28;;;8.17;100.00
49973;BME280;35865;49.798;10.968;2022-09-21T00:34:58;99121.16;;;8.18;100.00
49973;BME280;35865;49.798;10.968;2022-09-21T00:37:27;99122.59;;;8.14;100.00
49973;BME280;35865;49.798;10.968;2022-09-21T00:39:54;99118.97;;;8.02;100.00
49973;BME280;35865;49.798;10.968;2022-09-21T00:42:23;99128.88;;;8.13;100.00
49973;BME280;35865;49.798;10.968;2022-09-21T00:44:51;99126.59;;;8.23;100.00
49973;BME280;35865;49.798;10.968;2022-09-21T00:47:21;99126.66;;;8.17;100.00
49973;BME280;35865;49.798;10.968;2022-09-21T00:49:51;99132.53;;;8.12;100.00
49973;BME280;35865;49.798;10.968;2022-09-21T00:52:21;99135.81;;;8.14;100.00
49973;BME280;35865;49.798;10.968;2022-09-21T00:54:51;99118.31;;;7.93;100.00
49973;BME280;35865;49.798;10.968;2022-09-21T00:57:19;99121.56;;;7.95;100.00
49973;BME280;35865;49.798;10.968;2022-09-21T00:59:48;99127.47;;;8.04;100.00
49973;BME280;35865;49.798;10.968;2022-09-21T01:02:16;99119.53;;;7.90;100.00
49973;BME280;35865;49.798;10.968;2022-09-21T01:04:43;99125.22;;;7.94;100.00
49973;BME280;35865;49.798;10.968;2022-09-21T01:07:14;99122.38;;;7.89;100.00
49973;BME280;35865;49.798;10.968;2022-09-21T01:09:46;99125.66;;;7.84;100.00
49973;BME280;35865;49.798;10.968;2022-09-21T01:12:24;99127.66;;;7.96;100.00
49973;BME280;35865;49.798;10.968;2022-09-21T01:15:09;99122.00;;;7.85;100.00
49973;BME280;35865;49.798;10.968;2022-09-21T01:17:44;99130.53;;;7.87;100.00
49973;BME280;35865;49.798;10.968;2022-09-21T01:23:34;99129.50;;;7.88;100.00
49973;BME280;35865;49.798;10.968;2022-09-21T01:26:15;99120.38;;;7.84;100.00
49973;BME280;35865;49.798;10.968;2022-09-21T01:28:59;99121.19;;;7.78;100.00
49973;BME280;35865;49.798;10.968;2022-09-21T01:31:37;99122.00;;;7.79;100.00
49973;BME280;35865;49.798;10.968;2022-09-21T01:34:08;99125.66;;;7.84;100.00
49973;BME280;35865;49.798;10.968;2022-09-21T01:36:37;99123.44;;;7.81;100.00
49973;BME280;35865;49.798;10.968;2022-09-21T01:39:07;99126.88;;;7.88;100.00
49973;BME280;35865;49.798;10.968;2022-09-21T01:41:37;99127.28;;;7.85;100.00
49973;BME280;35865;49.798;10.968;2022-09-21T01:44:09;99135.41;;;7.77;100.00
49973;BME280;35865;49.798;10.968;2022-09-21T01:46:37;99136.22;;;7.91;100.00
49973;BME280;35865;49.798;10.968;2022-09-21T01:49:08;99138.66;;;7.86;100.00
49973;BME280;35865;49.798;10.968;2022-09-21T01:51:39;99134.78;;;7.75;100.00
49973;BME280;35865;49.798;10.968;2022-09-21T01:54:10;99135.22;;;7.65;100.00
49973;BME280;35865;49.798;10.968;2022-09-21T01:56:41;99141.72;;;7.63;100.00
49973;BME280;35865;49.798;10.968;2022-09-21T01:59:15;99139.88;;;7.63;100.00
49973;BME280;35865;49.798;10.968;2022-09-21T02:01:47;99143.94;;;7.66;100.00
49973;BME280;35865;49.798;10.968;2022-09-21T02:04:17;99141.91;;;7.68;100.00
49973;BME280;35865;49.798;10.968;2022-09-21T02:06:45;99134.41;;;7.51;100.00
49973;BME280;35865;49.798;10.968;2022-09-21T02:09:13;99135.81;;;7.47;100.00
49973;BME280;35865;49.798;10.968;2022-09-21T02:11:43;99131.75;;;7.51;100.00
49973;BME280;35865;49.798;10.968;2022-09-21T02:14:12;99143.75;;;7.60;100.00
49973;BME280;35865;49.798;10.968;2022-09-21T02:16:46;99142.72;;;7.55;100.00
49973;BME280;35865;49.798;10.968;2022-09-21T02:19:19;99129.34;;;7.50;100.00
49973;BME280;35865;49.798;10.968;2022-09-21T02:21:55;99137.84;;;7.52;100.00
49973;BME280;35865;49.798;10.968;2022-09-21T02:24:32;99142.31;;;7.51;100.00
49973;BME280;35865;49.798;10.968;2022-09-21T02:27:04;99134.41;;;7.45;100.00
49973;BME280;35865;49.798;10.968;2022-09-21T02:29:39;99138.47;;;7.40;100.00
49973;BME280;35865;49.798;10.968;2022-09-21T02:32:11;99142.53;;;7.43;100.00
49973;BME280;35865;49.798;10.968;2022-09-21T02:34:46;99142.75;;;7.48;100.00
49973;BME280;35865;49.798;10.968;2022-09-21T02:37:19;99146.78;;;7.51;100.00
49973;BME280;35865;49.798;10.968;2022-09-21T02:39:54;99136.41;;;7.49;100.00
49973;BME280;35865;49.798;10.968;2022-09-21T02:42:26;99137.47;;;7.48;100.00
49973;BME280;35865;49.798;10.968;2022-09-21T02:45:01;99139.06;;;7.42;100.00
49973;BME280;35865;49.798;10.968;2022-09-21T02:47:33;99137.63;;;7.47;100.00
49973;BME280;35865;49.798;10.968;2022-09-21T02:50:05;99141.09;;;7.47;100.00
49973;BME280;35865;49.798;10.968;2022-09-21T02:52:35;99146.78;;;7.51;100.00
49973;BME280;35865;49.798;10.968;2022-09-21T02:55:07;99148.41;;;7.52;100.00
49973;BME280;35865;49.798;10.968;2022-09-21T02:57:35;99150.84;;;7.53;100.00
49973;BME280;35865;49.798;10.968;2022-09-21T03:00:05;99154.53;;;7.52;100.00
49973;BME280;35865;49.798;10.968;2022-09-21T03:02:36;99154.50;;;7.46;100.00
49973;BME280;35865;49.798;10.968;2022-09-21T03:05:04;99149.00;;;7.40;100.00
49973;BME280;35865;49.798;10.968;2022-09-21T03:07:30;99151.22;;;7.37;100.00
49973;BME280;35865;49.798;10.968;2022-09-21T03:09:57;99149.59;;;7.22;100.00
49973;BME280;35865;49.798;10.968;2022-09-21T03:12:24;99152.88;;;7.45;100.00
49973;BME280;35865;49.798;10.968;2022-09-21T03:14:51;99160.56;;;7.39;100.00
49973;BME280;35865;49.798;10.968;2022-09-21T03:17:19;99157.13;;;7.39;100.00
49973;BME280;35865;49.798;10.968;2022-09-21T03:19:46;99161.00;;;7.36;100.00
49973;BME280;35865;49.798;10.968;2022-09-21T03:22:13;99157.34;;;7.31;100.00
49973;BME280;35865;49.798;10.968;2022-09-21T03:24:41;99165.84;;;7.33;100.00
49973;BME280;35865;49.798;10.968;2022-09-21T03:27:10;99177.03;;;7.35;100.00
49973;BME280;35865;49.798;10.968;2022-09-21T03:29:37;99169.50;;;7.38;100.00
49973;BME280;35865;49.798;10.968;2022-09-21T03:32:04;99169.13;;;7.35;100.00
49973;BME280;35865;49.798;10.968;2022-09-21T03:34:32;99173.19;;;7.37;100.00
49973;BME280;35865;49.798;10.968;2022-09-21T03:36:58;99163.00;;;7.21;100.00
49973;BME280;35865;49.798;10.968;2022-09-21T03:39:25;99164.59;;;7.22;100.00
49973;BME280;35865;49.798;10.968;2022-09-21T03:41:52;99174.97;;;7.23;100.00
49973;BME280;35865;49.798;10.968;2022-09-21T03:44:20;99178.41;;;7.17;100.00
49973;BME280;35865;49.798;10.968;2022-09-21T03:46:47;99173.53;;;7.14;100.00
49973;BME280;35865;49.798;10.968;2022-09-21T03:49:13;99177.97;;;7.14;100.00
49973;BME280;35865;49.798;10.968;2022-09-21T03:51:41;99178.38;;;7.04;100.00
49973;BME280;35865;49.798;10.968;2022-09-21T03:54:08;99179.19;;;7.11;100.00
49973;BME280;35865;49.798;10.968;2022-09-21T03:56:34;99191.38;;;7.12;100.00
49973;BME280;35865;49.798;10.968;2022-09-21T03:59:01;99194.22;;;7.11;100.00
49973;BME280;35865;49.798;10.968;2022-09-21T04:01:27;99190.78;;;7.10;100.00
49973;BME280;35865;49.798;10.968;2022-09-21T04:03:54;99190.97;;;7.08;100.00
49973;BME280;35865;49.798;10.968;2022-09-21T04:06:20;99183.03;;;7.02;100.00
49973;BME280;35865;49.798;10.968;2022-09-21T04:08:48;99188.91;;;7.04;100.00
49973;BME280;35865;49.798;10.968;2022-09-21T04:11:17;99190.97;;;7.15;100.00
49973;BME280;35865;49.798;10.968;2022-09-21T04:13:48;99196.25;;;7.15;100.00
49973;BME280;35865;49.798;10.968;2022-09-21T04:16:15;99200.47;;;7.03;100.00
49973;BME280;35865;49.798;10.968;2022-09-21T04:18:42;99202.31;;;7.02;100.00
49973;BME280;35865;49.798;10.968;2022-09-21T04:21:08;99200.28;;;6.98;100.00
49973;BME280;35865;49.798;10.968;2022-09-21T04:23:35;99202.69;;;6.92;100.00
49973;BME280;35865;49.798;10.968;2022-09-21T04:26:03;99203.69;;;6.91;100.00
49973;BME280;35865;49.798;10.968;2022-09-21T04:28:30;99206.56;;;6.97;100.00
49973;BME280;35865;49.798;10.968;2022-09-21T04:30:57;99204.53;;;6.99;100.00
49973;BME280;35865;49.798;10.968;2022-09-21T04:33:24;99208.16;;;6.91;100.00
49973;BME280;35865;49.798;10.968;2022-09-21T04:35:53;99200.59;;;6.74;100.00
49973;BME280;35865;49.798;10.968;2022-09-21T04:38:20;99202.66;;;6.86;100.00
49973;BME280;35865;49.798;10.968;2022-09-21T04:40:54;99216.66;;;6.86;100.00
49973;BME280;35865;49.798;10.968;2022-09-21T04:43:25;99206.25;;;6.71;100.00
49973;BME280;35865;49.798;10.968;2022-09-21T04:45:52;99205.38;;;6.57;100.00
49973;BME280;35865;49.798;10.968;2022-09-21T04:48:18;99216.75;;;6.58;100.00
49973;BME280;35865;49.798;10.968;2022-09-21T04:50:47;99204.56;;;6.57;100.00
49973;BME280;35865;49.798;10.968;2022-09-21T04:53:13;99211.28;;;6.60;100.00
49973;BME280;35865;49.798;10.968;2022-09-21T04:55:40;99219.22;;;6.66;100.00
49973;BME280;35865;49.798;10.968;2022-09-21T04:58:07;99217.81;;;6.70;100.00
49973;BME280;35865;49.798;10.968;2022-09-21T05:00:35;99222.44;;;6.68;100.00
49973;BME280;35865;49.798;10.968;2022-09-21T05:03:01;99217.78;;;6.64;100.00
49973;BME280;35865;49.798;10.968;2022-09-21T05:05:27;99220.81;;;6.61;100.00
49973;BME280;35865;49.798;10.968;2022-09-21T05:07:54;99215.47;;;6.47;100.00
49973;BME280;35865;49.798;10.968;2022-09-21T05:10:20;99220.72;;;6.47;100.00
49973;BME280;35865;49.798;10.968;2022-09-21T05:12:46;99222.09;;;6.36;100.00
49973;BME280;35865;49.798;10.968;2022-09-21T05:15:12;99217.84;;;6.42;100.00
49973;BME280;35865;49.798;10.968;2022-09-21T05:17:40;99219.53;;;6.50;100.00
49973;BME280;35865;49.798;10.968;2022-09-21T05:20:08;99229.47;;;6.54;100.00
49973;BME280;35865;49.798;10.968;2022-09-21T05:22:35;99230.72;;;6.58;100.00
49973;BME280;35865;49.798;10.968;2022-09-21T05:25:02;99234.31;;;6.44;100.00
49973;BME280;35865;49.798;10.968;2022-09-21T05:27:28;99235.34;;;6.50;100.00
49973;BME280;35865;49.798;10.968;2022-09-21T05:29:55;99235.94;;;6.52;100.00
49973;BME280;35865;49.798;10.968;2022-09-21T05:32:24;99238.63;;;6.58;100.00
49973;BME280;35865;49.798;10.968;2022-09-21T05:35:00;99250.41;;;6.63;100.00
49973;BME280;35865;49.798;10.968;2022-09-21T05:37:42;99245.56;;;6.66;100.00
49973;BME280;35865;49.798;10.968;2022-09-21T05:40:11;99242.25;;;6.57;100.00
49973;BME280;35865;49.798;10.968;2022-09-21T05:42:39;99243.75;;;6.67;100.00
49973;BME280;35865;49.798;10.968;2022-09-21T05:45:08;99246.09;;;6.55;100.00
49973;BME280;35865;49.798;10.968;2022-09-21T05:47:39;99253.25;;;6.61;100.00
49973;BME280;35865;49.798;10.968;2022-09-21T05:50:23;99253.69;;;6.65;100.00
49973;BME280;35865;49.798;10.968;2022-09-21T05:53:00;99251.66;;;6.67;100.00
49973;BME280;35865;49.798;10.968;2022-09-21T05:55:38;99248.78;;;6.62;100.00
49973;BME280;35865;49.798;10.968;2022-09-21T05:58:14;99251.28;;;6.77;100.00
49973;BME280;35865;49.798;10.968;2022-09-21T06:00:54;99260.81;;;6.71;100.00
49973;BME280;35865;49.798;10.968;2022-09-21T06:03:26;99249.69;;;6.82;100.00
49973;BME280;35865;49.798;10.968;2022-09-21T06:05:55;99262.78;;;7.04;100.00
49973;BME280;35865;49.798;10.968;2022-09-21T06:08:21;99260.53;;;7.01;100.00
49973;BME280;35865;49.798;10.968;2022-09-21T06:10:48;99262.22;;;7.15;100.00
49973;BME280;35865;49.798;10.968;2022-09-21T06:13:15;99258.41;;;7.24;100.00
49973;BME280;35865;49.798;10.968;2022-09-21T06:15:41;99253.13;;;7.24;100.00
49973;BME280;35865;49.798;10.968;2022-09-21T06:18:08;99256.16;;;7.21;100.00
49973;BME280;35865;49.798;10.968;2022-09-21T06:20:35;99259.66;;;7.42;100.00
49973;BME280;35865;49.798;10.968;2022-09-21T06:23:05;99263.50;;;7.39;100.00
49973;BME280;35865;49.798;10.968;2022-09-21T06:25:32;99268.00;;;7.46;100.00
49973;BME280;35865;49.798;10.968;2022-09-21T06:28:01;99264.56;;;7.52;100.00
49973;BME280;35865;49.798;10.968;2022-09-21T06:30:28;99268.88;;;7.73;100.00
49973;BME280;35865;49.798;10.968;2022-09-21T06:32:57;99252.94;;;7.33;100.00
49973;BME280;35865;49.798;10.968;2022-09-21T06:35:24;99263.78;;;7.65;100.00
49973;BME280;35865;49.798;10.968;2022-09-21T06:37:51;99261.56;;;7.75;100.00
49973;BME280;35865;49.798;10.968;2022-09-21T06:40:19;99267.28;;;7.85;100.00
49973;BME280;35865;49.798;10.968;2022-09-21T06:42:45;99263.00;;;7.91;100.00
49973;BME280;35865;49.798;10.968;2022-09-21T06:45:11;99256.28;;;7.88;100.00
49973;BME280;35865;49.798;10.968;2022-09-21T06:47:38;99266.28;;;8.00;100.00
49973;BME280;35865;49.798;10.968;2022-09-21T06:50:05;99258.78;;;8.03;100.00
49973;BME280;35865;49.798;10.968;2022-09-21T06:52:31;99260.19;;;8.06;100.00
49973;BME280;35865;49.798;10.968;2022-09-21T06:54:58;99252.06;;;8.01;100.00
49973;BME280;35865;49.798;10.968;2022-09-21T06:57:25;99257.13;;;8.02;100.00
49973;BME280;35865;49.798;10.968;2022-09-21T06:59:52;99261.00;;;8.26;100.00
49973;BME280;35865;49.798;10.968;2022-09-21T07:02:18;99257.94;;;8.23;100.00
49973;BME280;35865;49.798;10.968;2022-09-21T07:04:46;99260.00;;;8.14;100.00
49973;BME280;35865;49.798;10.968;2022-09-21T07:07:12;99252.66;;;8.30;100.00
49973;BME280;35865;49.798;10.968;2022-09-21T07:09:38;99258.94;;;8.55;100.00
49973;BME280;35865;49.798;10.968;2022-09-21T07:12:05;99259.53;;;8.57;100.00
49973;BME280;35865;49.798;10.968;2022-09-21T07:14:33;99252.22;;;8.53;100.00
49973;BME280;35865;49.798;10.968;2022-09-21T07:17:00;99260.47;;;8.83;100.00
49973;BME280;35865;49.798;10.968;2022-09-21T07:19:26;99251.78;;;8.69;100.00
49973;BME280;35865;49.798;10.968;2022-09-21T07:21:53;99250.78;;;8.64;100.00
49973;BME280;35865;49.798;10.968;2022-09-21T07:24:20;99255.38;;;8.88;100.00
49973;BME280;35865;49.798;10.968;2022-09-21T07:26:46;99250.69;;;8.90;100.00
49973;BME280;35865;49.798;10.968;2022-09-21T07:29:13;99247.03;;;8.91;100.00
49973;BME280;35865;49.798;10.968;2022-09-21T07:31:43;99250.06;;;9.02;100.00
49973;BME280;35865;49.798;10.968;2022-09-21T07:34:09;99245.38;;;8.97;100.00
49973;BME280;35865;49.798;10.968;2022-09-21T07:36:36;99238.81;;;9.13;100.00
49973;BME280;35865;49.798;10.968;2022-09-21T07:39:02;99235.47;;;8.79;100.00
49973;BME280;35865;49.798;10.968;2022-09-21T07:41:29;99243.34;;;8.99;100.00
49973;BME280;35865;49.798;10.968;2022-09-21T07:43:56;99235.94;;;9.15;100.00
49973;BME280;35865;49.798;10.968;2022-09-21T07:46:22;99237.63;;;9.41;100.00
49973;BME280;35865;49.798;10.968;2022-09-21T07:48:52;99230.81;;;9.20;100.00
49973;BME280;35865;49.798;10.968;2022-09-21T07:51:18;99234.38;;;9.71;100.00
49973;BME280;35865;49.798;10.968;2022-09-21T07:53:45;99232.50;;;9.46;100.00
49973;BME280;35865;49.798;10.968;2022-09-21T07:56:13;99227.69;;;9.68;100.00
49973;BME280;35865;49.798;10.968;2022-09-21T07:58:40;99219.50;;;10.02;100.00
49973;BME280;35865;49.798;10.968;2022-09-21T08:01:25;99226.75;;;10.57;100.00
49973;BME280;35865;49.798;10.968;2022-09-21T08:03:54;99221.34;;;11.01;100.00
49973;BME280;35865;49.798;10.968;2022-09-21T08:06:22;99223.38;;;11.47;100.00
49973;BME280;35865;49.798;10.968;2022-09-21T08:08:49;99203.53;;;11.20;100.00
49973;BME280;35865;49.798;10.968;2022-09-21T08:11:17;99205.38;;;11.19;100.00
49973;BME280;35865;49.798;10.968;2022-09-21T08:13:43;99203.19;;;11.58;100.00
49973;BME280;35865;49.798;10.968;2022-09-21T08:16:10;99203.84;;;11.54;100.00
49973;BME280;35865;49.798;10.968;2022-09-21T08:18:37;99190.00;;;11.52;100.00
49973;BME280;35865;49.798;10.968;2022-09-21T08:21:06;99207.56;;;11.64;100.00
49973;BME280;35865;49.798;10.968;2022-09-21T08:23:34;99189.53;;;11.43;100.00
49973;BME280;35865;49.798;10.968;2022-09-21T08:26:07;99193.38;;;11.71;100.00
49973;BME280;35865;49.798;10.968;2022-09-21T08:28:35;99195.50;;;11.92;100.00
49973;BME280;35865;49.798;10.968;2022-09-21T08:31:04;99185.66;;;11.69;100.00
49973;BME280;35865;49.798;10.968;2022-09-21T08:33:32;99195.84;;;12.08;100.00
49973;BME280;35865;49.798;10.968;2022-09-21T08:35:59;99191.34;;;12.32;100.00
49973;BME280;35865;49.798;10.968;2022-09-21T08:38:32;99185.44;;;12.18;100.00
49973;BME280;35865;49.798;10.968;2022-09-21T08:40:59;99174.91;;;11.76;100.00
49973;BME280;35865;49.798;10.968;2022-09-21T08:43:30;99188.19;;;11.88;100.00
49973;BME280;35865;49.798;10.968;2022-09-21T08:46:00;99191.69;;;12.12;100.00
49973;BME280;35865;49.798;10.968;2022-09-21T08:48:30;99198.97;;;12.16;100.00
49973;BME280;35865;49.798;10.968;2022-09-21T08:51:01;99196.06;;;12.30;100.00
49973;BME280;35865;49.798;10.968;2022-09-21T08:53:32;99196.88;;;12.54;100.00
49973;BME280;35865;49.798;10.968;2022-09-21T08:56:00;99195.69;;;12.74;100.00
49973;BME280;35865;49.798;10.968;2022-09-21T08:58:28;99178.75;;;12.04;100.00
49973;BME280;35865;49.798;10.968;2022-09-21T09:01:05;99175.47;;;11.78;100.00
49973;BME280;35865;49.798;10.968;2022-09-21T09:03:52;99186.03;;;12.20;100.00
49973;BME280;35865;49.798;10.968;2022-09-21T09:06:31;99180.38;;;12.05;100.00
49973;BME280;35865;49.798;10.968;2022-09-21T09:09:20;99180.13;;;11.94;100.00
49973;BME280;35865;49.798;10.968;2022-09-21T09:12:06;99185.09;;;12.38;100.00
49973;BME280;35865;49.798;10.968;2022-09-21T09:14:54;99195.78;;;12.79;100.00
49973;BME280;35865;49.798;10.968;2022-09-21T09:17:35;99175.59;;;11.83;100.00
49973;BME280;35865;49.798;10.968;2022-09-21T09:20:06;99181.63;;;12.26;100.00
49973;BME280;35865;49.798;10.968;2022-09-21T09:22:41;99189.28;;;12.46;100.00
49973;BME280;35865;49.798;10.968;2022-09-21T09:25:16;99187.88;;;12.55;100.00
49973;BME280;35865;49.798;10.968;2022-09-21T09:27:45;99186.78;;;13.09;100.00
49973;BME280;35865;49.798;10.968;2022-09-21T09:30:15;99165.94;;;13.06;97.44
49973;BME280;35865;49.798;10.968;2022-09-21T09:32:48;99193.81;;;13.78;96.71
49973;BME280;35865;49.798;10.968;2022-09-21T09:35:23;99188.00;;;14.15;94.86
49973;BME280;35865;49.798;10.968;2022-09-21T09:37:54;99194.47;;;14.58;94.19
49973;BME280;35865;49.798;10.968;2022-09-21T09:40:38;99175.88;;;14.24;92.95
49973;BME280;35865;49.798;10.968;2022-09-21T09:43:14;99185.53;;;14.69;92.99
49973;BME280;35865;49.798;10.968;2022-09-21T09:45:50;99158.25;;;13.89;91.02
49973;BME280;35865;49.798;10.968;2022-09-21T09:48:38;99161.28;;;13.13;92.36
49973;BME280;35865;49.798;10.968;2022-09-21T09:51:09;99168.41;;;13.24;93.00
49973;BME280;35865;49.798;10.968;2022-09-21T09:53:36;99177.00;;;13.60;93.26
49973;BME280;35865;49.798;10.968;2022-09-21T09:56:04;99178.28;;;13.58;93.25
49973;BME280;35865;49.798;10.968;2022-09-21T09:58:37;99179.56;;;13.55;93.62
49973;BME280;35865;49.798;10.968;2022-09-21T10:01:06;99177.00;;;13.60;93.92
49973;BME280;35865;49.798;10.968;2022-09-21T10:03:33;99167.53;;;13.35;94.24
49973;BME280;35865;49.798;10.968;2022-09-21T10:06:00;99166.44;;;13.19;93.72
49973;BME280;35865;49.798;10.968;2022-09-21T10:08:29;99159.94;;;12.98;94.07
49973;BME280;35865;49.798;10.968;2022-09-21T10:10:56;99173.94;;;13.68;94.64
49973;BME280;35865;49.798;10.968;2022-09-21T10:13:28;99161.81;;;13.44;95.04
49973;BME280;35865;49.798;10.968;2022-09-21T10:15:57;99172.41;;;13.90;93.94
49973;BME280;35865;49.798;10.968;2022-09-21T10:18:28;99172.38;;;14.24;94.35
49973;BME280;35865;49.798;10.968;2022-09-21T10:21:02;99177.94;;;14.83;92.66
49973;BME280;35865;49.798;10.968;2022-09-21T10:23:30;99159.56;;;14.87;90.80
49973;BME280;35865;49.798;10.968;2022-09-21T10:26:00;99141.19;;;14.46;89.94
49973;BME280;35865;49.798;10.968;2022-09-21T10:28:29;99139.03;;;14.21;89.44
49973;BME280;35865;49.798;10.968;2022-09-21T10:31:11;99163.50;;;15.61;88.79
49973;BME280;35865;49.798;10.968;2022-09-21T10:33:53;99158.66;;;16.44;85.57
49973;BME280;35865;49.798;10.968;2022-09-21T10:36:31;99174.25;;;17.72;83.84
49973;BME280;35865;49.798;10.968;2022-09-21T10:39:16;99131.06;;;17.99;78.89
49973;BME280;35865;49.798;10.968;2022-09-21T10:41:47;99104.78;;;17.65;77.07
49973;BME280;35865;49.798;10.968;2022-09-21T10:44:17;99099.13;;;17.00;77.74
49973;BME280;35865;49.798;10.968;2022-09-21T10:46:46;99098.81;;;16.70;78.10
49973;BME280;35865;49.798;10.968;2022-09-21T10:49:20;99119.34;;;16.54;79.32
49973;BME280;35865;49.798;10.968;2022-09-21T10:51:48;99121.34;;;17.00;79.16
49973;BME280;35865;49.798;10.968;2022-09-21T10:54:22;99109.78;;;16.74;78.87
49973;BME280;35865;49.798;10.968;2022-09-21T10:56:53;99125.66;;;17.01;79.74
49973;BME280;35865;49.798;10.968;2022-09-21T10:59:25;99114.09;;;16.85;79.41
49973;BME280;35865;49.798;10.968;2022-09-21T11:01:54;99123.25;;;17.15;79.75
49973;BME280;35865;49.798;10.968;2022-09-21T11:04:28;99120.34;;;17.32;78.95
49973;BME280;35865;49.798;10.968;2022-09-21T11:07:01;99109.34;;;17.54;77.68
49973;BME280;35865;49.798;10.968;2022-09-21T11:09:34;99100.47;;;17.54;76.90
49973;BME280;35865;49.798;10.968;2022-09-21T11:12:09;99101.28;;;17.44;76.62
49973;BME280;35865;49.798;10.968;2022-09-21T11:14:46;99117.38;;;17.65;77.98
49973;BME280;35865;49.798;10.968;2022-09-21T11:17:19;99084.94;;;17.25;77.02
49973;BME280;35865;49.798;10.968;2022-09-21T11:19:56;99086.56;;;17.31;77.55
49973;BME280;35865;49.798;10.968;2022-09-21T11:22:33;99083.31;;;16.93;77.88
49973;BME280;35865;49.798;10.968;2022-09-21T11:25:09;99094.59;;;17.57;77.79
49973;BME280;35865;49.798;10.968;2022-09-21T11:27:45;99084.38;;;17.80;77.03
49973;BME280;35865;49.798;10.968;2022-09-21T11:30:16;99079.56;;;17.51;76.82
49973;BME280;35865;49.798;10.968;2022-09-21T11:32:57;99063.19;;;16.80;77.53
49973;BME280;35865;49.798;10.968;2022-09-21T11:35:34;99073.56;;;16.56;78.67
49973;BME280;35865;49.798;10.968;2022-09-21T11:38:11;99080.31;;;16.64;80.08
49973;BME280;35865;49.798;10.968;2022-09-21T11:40:49;99094.59;;;17.31;80.71
49973;BME280;35865;49.798;10.968;2022-09-21T11:43:29;99089.50;;;17.45;80.12
49973;BME280;35865;49.798;10.968;2022-09-21T11:46:09;99081.19;;;17.57;79.41
49973;BME280;35865;49.798;10.968;2022-09-21T11:48:49;99073.63;;;17.90;78.23
49973;BME280;35865;49.798;10.968;2022-09-21T11:51:34;99060.34;;;18.24;76.95
49973;BME280;35865;49.798;10.968;2022-09-21T11:54:21;99026.31;;;18.15;74.01
49973;BME280;35865;49.798;10.968;2022-09-21T11:56:57;99026.31;;;18.15;74.66
49973;BME280;35865;49.798;10.968;2022-09-21T11:59:42;99031.19;;;18.52;73.38
49973;BME280;35865;49.798;10.968;2022-09-21T12:02:48;99024.88;;;18.27;73.50
49973;BME280;35865;49.798;10.968;2022-09-21T12:05:21;99015.66;;;17.94;72.91
49973;BME280;35865;49.798;10.968;2022-09-21T12:08:03;99011.16;;;18.34;72.19
49973;BME280;35865;49.798;10.968;2022-09-21T12:10:38;98986.59;;;18.06;70.45
49973;BME280;35865;49.798;10.968;2022-09-21T12:13:16;98997.59;;;18.55;70.47
49973;BME280;35865;49.798;10.968;2022-09-21T12:15:52;98998.97;;;18.87;70.60
49973;BME280;35865;49.798;10.968;2022-09-21T12:18:29;98970.97;;;18.98;67.86
49973;BME280;35865;49.798;10.968;2022-09-21T12:21:11;98960.75;;;19.00;66.55
49973;BME280;35865;49.798;10.968;2022-09-21T12:23:41;98946.50;;;18.65;65.85
49973;BME280;35865;49.798;10.968;2022-09-21T12:26:09;98938.13;;;18.72;65.18
49973;BME280;35865;49.798;10.968;2022-09-21T12:28:40;98914.28;;;18.60;63.52
49973;BME280;35865;49.798;10.968;2022-09-21T12:31:11;98919.28;;;18.37;63.85
49973;BME280;35865;49.798;10.968;2022-09-21T12:33:45;98918.84;;;18.25;64.29
49973;BME280;35865;49.798;10.968;2022-09-21T12:36:17;98909.28;;;18.08;63.73
49973;BME280;35865;49.798;10.968;2022-09-21T12:38:49;98876.53;;;18.12;60.94
49973;BME280;35865;49.798;10.968;2022-09-21T12:41:23;98873.31;;;18.09;60.70
49973;BME280;35865;49.798;10.968;2022-09-21T12:43:59;98892.53;;;18.22;60.79
49973;BME280;35865;49.798;10.968;2022-09-21T12:46:30;98871.81;;;18.27;59.21
49973;BME280;35865;49.798;10.968;2022-09-21T12:49:09;98880.28;;;18.11;60.35
49973;BME280;35865;49.798;10.968;2022-09-21T12:51:42;98888.84;;;18.13;60.77
49973;BME280;35865;49.798;10.968;2022-09-21T12:54:17;98887.41;;;17.75;61.27
49973;BME280;35865;49.798;10.968;2022-09-21T12:56:52;98880.16;;;17.81;60.78
49973;BME280;35865;49.798;10.968;2022-09-21T12:59:28;98896.72;;;18.38;60.99
49973;BME280;35865;49.798;10.968;2022-09-21T13:02:04;98866.94;;;18.35;59.07
49973;BME280;35865;49.798;10.968;2022-09-21T13:04:47;98870.16;;;17.97;60.21
49973;BME280;35865;49.798;10.968;2022-09-21T13:07:39;98874.06;;;17.65;61.24
49973;BME280;35865;49.798;10.968;2022-09-21T13:10:16;98876.75;;;18.15;59.88